Time;durP1;ratioP1;P1;durP2;ratioP2;P2;SDS_P1;SDS_P2;PMS_P1;PMS_P2;Temp;Humidity;BMP_temperature;BMP_pressure;BME280_temperature;BME280_humidity;BME280_pressure;Samples;Min_cycle;Max_cycle;Signal;HPM_P1;HPM_P2
2023/07/26 00:01:01;;;;;;;2.53;1.67;;;13.20;49.20;;;;;;4976162;28;20403;-76
2023/07/26 00:03:26;;;;;;;3.85;2.45;;;13.20;55.80;;;;;;4979042;28;20191;-75
2023/07/26 00:05:52;;;;;;;2.38;1.83;;;13.10;99.90;;;;;;4977779;28;20212;-76
2023/07/26 00:08:18;;;;;;;5.25;2.10;;;13.10;93.40;;;;;;4958804;28;20192;-76
2023/07/26 00:10:46;;;;;;;2.83;1.80;;;13.10;99.90;;;;;;4978104;28;20627;-77
2023/07/26 00:13:12;;;;;;;2.63;1.70;;;13.00;99.90;;;;;;4974883;28;20622;-76
2023/07/26 00:15:38;;;;;;;3.63;1.90;;;13.00;99.90;;;;;;4978102;28;20207;-76
2023/07/26 00:18:04;;;;;;;4.65;2.05;;;13.00;99.90;;;;;;4976356;28;20176;-75
2023/07/26 00:20:30;;;;;;;6.35;1.80;;;13.00;62.40;;;;;;4969263;28;20188;-76
2023/07/26 00:22:55;;;;;;;4.55;1.77;;;13.10;14.70;;;;;;4979109;28;20223;-78
2023/07/26 00:25:21;;;;;;;4.90;1.67;;;13.10;26.20;;;;;;4972007;28;20283;-76
2023/07/26 00:27:46;;;;;;;2.58;1.90;;;13.00;1.00;;;;;;4975224;28;20650;-78
2023/07/26 00:30:14;;;;;;;8.77;2.50;;;13.00;77.50;;;;;;4976200;28;20263;-77
2023/07/26 00:32:40;;;;;;;5.13;1.88;;;13.00;1.00;;;;;;4977785;28;20656;-76
2023/07/26 00:35:06;;;;;;;1.95;1.75;;;12.90;12.60;;;;;;4976780;28;20200;-76
2023/07/26 00:37:32;;;;;;;4.20;1.60;;;12.80;22.10;;;;;;4972882;28;20203;-75
2023/07/26 00:39:57;;;;;;;2.53;1.88;;;12.80;23.90;;;;;;4969041;28;20185;-76
2023/07/26 00:42:23;;;;;;;3.83;1.67;;;12.70;26.00;;;;;;4975242;28;20829;-78
2023/07/26 00:44:49;;;;;;;3.25;1.42;;;12.60;10.00;;;;;;4977435;28;20274;-77
2023/07/26 00:47:15;;;;;;;3.70;1.80;;;12.60;19.40;;;;;;4974311;28;20188;-75
2023/07/26 00:49:41;;;;;;;5.03;2.00;;;12.50;7.10;;;;;;4976288;28;20192;-76
2023/07/26 00:52:07;;;;;;;3.10;2.05;;;12.50;22.60;;;;;;4971127;28;20189;-75
2023/07/26 00:54:33;;;;;;;4.07;1.73;;;12.60;55.80;;;;;;4955138;28;20216;-76
2023/07/26 00:57:00;;;;;;;4.97;2.60;;;12.60;19.00;;;;;;4976059;28;20188;-77
2023/07/26 00:59:26;;;;;;;5.60;1.95;;;12.50;15.30;;;;;;4975315;28;20180;-75
2023/07/26 01:01:51;;;;;;;4.00;1.77;;;12.50;43.30;;;;;;4974539;28;20532;-78
2023/07/26 01:04:17;;;;;;;3.30;1.70;;;12.50;50.30;;;;;;4976009;28;20192;-78
2023/07/26 01:07:01;;;;;;;5.38;1.77;;;12.50;1.10;;;;;;4969575;28;20177;-76
2023/07/26 01:09:50;;;;;;;3.70;1.77;;;12.40;1.00;;;;;;4957652;28;20438;-75
2023/07/26 01:12:21;;;;;;;4.90;1.98;;;12.50;40.70;;;;;;4967521;28;20563;-76
2023/07/26 01:15:05;;;;;;;3.45;1.80;;;12.50;1.00;;;;;;4977394;28;20681;-76
2023/07/26 01:17:31;;;;;;;4.90;1.90;;;12.50;26.30;;;;;;4960903;28;20559;-76
2023/07/26 01:19:57;;;;;;;2.92;1.75;;;12.40;6.10;;;;;;4977611;28;20192;-76
2023/07/26 01:22:22;;;;;;;4.20;1.73;;;12.40;1.00;;;;;;4967024;28;20180;-77
2023/07/26 01:24:48;;;;;;;4.75;1.90;;;12.30;1.00;;;;;;4950835;28;20212;-76
2023/07/26 01:27:14;;;;;;;2.88;1.50;;;;;;;;;;4970860;28;20193;-77
2023/07/26 01:29:40;;;;;;;4.18;1.90;;;;;;;;;;4965571;28;20192;-76
2023/07/26 01:32:11;;;;;;;6.38;1.80;;;;;;;;;;4966262;28;20191;-76
2023/07/26 01:34:37;;;;;;;4.63;1.77;;;;;;;;;;4972826;28;20215;-77
2023/07/26 01:37:03;;;;;;;4.65;1.60;;;12.00;1.00;;;;;;4974618;28;20180;-77
2023/07/26 01:39:29;;;;;;;4.95;1.67;;;12.00;1.00;;;;;;4974331;28;20196;-77
2023/07/26 01:41:56;;;;;;;4.68;1.77;;;11.90;1.00;;;;;;4975617;28;20199;-75
2023/07/26 01:44:21;;;;;;;6.35;1.65;;;11.80;1.00;;;;;;4974044;28;20663;-78
2023/07/26 01:46:47;;;;;;;6.50;2.10;;;11.70;1.00;;;;;;4975975;28;20177;-76
2023/07/26 01:49:16;;;;;;;4.43;1.80;;;;;;;;;;4972504;28;20183;-76
2023/07/26 01:51:42;;;;;;;4.43;1.83;;;;;;;;;;4965697;28;20182;-75
2023/07/26 01:54:08;;;;;;;4.30;1.60;;;;;;;;;;4965306;28;20216;-76
2023/07/26 01:56:34;;;;;;;10.80;1.90;;;11.90;1.00;;;;;;4965859;28;20650;-79
2023/07/26 01:59:00;;;;;;;5.13;1.70;;;11.90;1.00;;;;;;4957212;28;20188;-76
2023/07/26 02:01:25;;;;;;;2.70;1.50;;;11.90;1.00;;;;;;4956137;28;20188;-76
2023/07/26 02:03:51;;;;;;;5.30;1.80;;;11.90;1.00;;;;;;4955741;28;20200;-77
2023/07/26 02:06:17;;;;;;;2.50;1.30;;;11.90;1.00;;;;;;4977298;28;20216;-77
2023/07/26 02:08:42;;;;;;;4.65;2.10;;;11.90;1.00;;;;;;4975573;28;20203;-76
2023/07/26 02:11:08;;;;;;;5.00;1.90;;;12.00;1.00;;;;;;4957281;28;20203;-77
2023/07/26 02:13:33;;;;;;;6.60;1.80;;;12.10;1.00;;;;;;4967000;28;20230;-77
2023/07/26 02:15:59;;;;;;;6.10;1.80;;;11.90;1.00;;;;;;4974735;28;20585;-79
2023/07/26 02:18:25;;;;;;;4.18;2.20;;;11.90;1.00;;;;;;4976206;28;20185;-79
2023/07/26 02:20:51;;;;;;;4.18;2.10;;;11.90;1.00;;;;;;4975467;28;20703;-76
2023/07/26 02:23:17;;;;;;;4.15;1.90;;;11.90;1.00;;;;;;4977226;28;20189;-78
2023/07/26 02:25:43;;;;;;;3.90;1.70;;;11.80;1.00;;;;;;4977281;28;20318;-76
2023/07/26 02:28:09;;;;;;;4.32;2.17;;;11.90;11.90;;;;;;4974558;28;20661;-77
2023/07/26 02:30:35;;;;;;;4.88;1.63;;;11.90;5.20;;;;;;4974954;28;20193;-77
2023/07/26 02:33:00;;;;;;;4.80;1.88;;;12.00;29.30;;;;;;4977674;28;20203;-77
2023/07/26 02:35:26;;;;;;;6.95;1.80;;;12.00;1.00;;;;;;4981638;28;20207;-77
2023/07/26 02:37:51;;;;;;;4.28;2.08;;;12.00;7.00;;;;;;4974476;28;20192;-75
2023/07/26 02:40:17;;;;;;;4.88;2.00;;;12.00;1.00;;;;;;4976892;28;20267;-77
2023/07/26 02:42:43;;;;;;;4.38;2.00;;;12.00;75.40;;;;;;4979485;28;20192;-75
2023/07/26 02:45:09;;;;;;;4.03;1.90;;;12.00;99.90;;;;;;4979774;28;20200;-76
2023/07/26 02:47:34;;;;;;;4.07;2.20;;;11.90;99.90;;;;;;4954584;28;20184;-76
2023/07/26 02:50:03;;;;;;;5.60;2.03;;;11.90;99.90;;;;;;4965751;28;20658;-76
2023/07/26 02:52:28;;;;;;;4.93;1.90;;;11.90;99.90;;;;;;4969123;28;20181;-75
2023/07/26 02:54:54;;;;;;;4.80;2.40;;;11.90;99.90;;;;;;4978053;28;20690;-76
2023/07/26 02:57:20;;;;;;;3.90;2.25;;;11.90;99.90;;;;;;4977053;28;20192;-77
2023/07/26 02:59:45;;;;;;;4.00;1.75;;;11.90;99.90;;;;;;4969184;28;20173;-75
2023/07/26 03:02:11;;;;;;;4.65;2.20;;;11.90;99.90;;;;;;4971561;28;20180;-77
2023/07/26 03:04:37;;;;;;;5.40;2.20;;;12.00;99.90;;;;;;4972432;28;20204;-77
2023/07/26 03:07:02;;;;;;;5.68;2.35;;;11.90;1.00;;;;;;4976842;28;20527;-75
2023/07/26 03:09:28;;;;;;;7.88;1.95;;;12.00;99.90;;;;;;4977396;28;20199;-78
2023/07/26 03:11:53;;;;;;;5.57;2.45;;;12.10;99.90;;;;;;4976328;28;20540;-77
2023/07/26 03:14:19;;;;;;;5.80;2.05;;;12.00;99.90;;;;;;4979787;28;20242;-77
2023/07/26 03:16:45;;;;;;;4.65;2.20;;;12.00;99.90;;;;;;4971905;28;20279;-79
2023/07/26 03:19:10;;;;;;;5.40;2.05;;;12.00;99.90;;;;;;4972218;28;20689;-76
2023/07/26 03:21:36;;;;;;;5.05;2.05;;;11.90;99.90;;;;;;4974656;28;20235;-76
2023/07/26 03:24:02;;;;;;;5.15;2.15;;;12.00;99.90;;;;;;4976100;28;20189;-76
2023/07/26 03:26:28;;;;;;;3.58;1.92;;;11.90;99.90;;;;;;4975819;28;20219;-77
2023/07/26 03:28:54;;;;;;;4.03;1.80;;;11.90;99.90;;;;;;4979520;28;20544;-76
2023/07/26 03:31:20;;;;;;;4.30;1.90;;;12.00;1.00;;;;;;4980362;28;20184;-77
2023/07/26 03:33:45;;;;;;;4.25;2.03;;;12.00;99.90;;;;;;4978562;28;20356;-76
2023/07/26 03:36:11;;;;;;;3.45;1.88;;;12.10;99.90;;;;;;4974547;28;20201;-79
2023/07/26 03:38:36;;;;;;;4.57;2.20;;;12.10;99.90;;;;;;4961252;28;20188;-77
2023/07/26 03:41:02;;;;;;;3.60;2.30;;;12.10;99.90;;;;;;4975284;28;20192;-77
2023/07/26 03:43:28;;;;;;;5.13;2.35;;;12.10;99.90;;;;;;4977606;28;20371;-77
2023/07/26 03:45:53;;;;;;;7.65;2.10;;;12.10;99.90;;;;;;4981736;28;20203;-76
2023/07/26 03:48:19;;;;;;;3.63;2.60;;;12.10;99.90;;;;;;4972689;28;20636;-76
2023/07/26 03:50:44;;;;;;;3.72;2.28;;;12.10;99.90;;;;;;4974897;28;20543;-77
2023/07/26 03:53:10;;;;;;;5.43;2.10;;;12.10;99.90;;;;;;4970382;28;20224;-77
2023/07/26 03:55:35;;;;;;;6.13;2.10;;;12.20;99.90;;;;;;4977845;28;20724;-77
2023/07/26 03:58:01;;;;;;;6.32;2.33;;;12.30;99.90;;;;;;4978465;28;20204;-77
2023/07/26 04:00:27;;;;;;;3.85;1.83;;;12.20;99.90;;;;;;4972397;28;20635;-77
2023/07/26 04:02:52;;;;;;;3.45;1.70;;;12.30;99.90;;;;;;4971676;28;20751;-78
2023/07/26 04:05:18;;;;;;;3.10;1.85;;;12.30;99.90;;;;;;4974426;28;20547;-78
2023/07/26 04:07:44;;;;;;;3.63;2.03;;;12.30;99.90;;;;;;4972470;28;20184;-77
2023/07/26 04:10:10;;;;;;;4.82;1.90;;;12.40;38.70;;;;;;4973120;28;20196;-79
2023/07/26 04:12:36;;;;;;;5.85;2.30;;;12.50;16.20;;;;;;4976664;28;20745;-78
2023/07/26 04:15:02;;;;;;;6.32;2.00;;;12.50;1.00;;;;;;4956539;28;20236;-77
2023/07/26 04:17:27;;;;;;;5.40;1.95;;;12.50;1.00;;;;;;4960943;28;20188;-76
2023/07/26 04:19:53;;;;;;;4.82;1.90;;;12.70;1.00;;;;;;4974973;28;20618;-78
2023/07/26 04:22:19;;;;;;;6.47;1.80;;;12.60;1.00;;;;;;4976287;28;20192;-78
2023/07/26 04:24:46;;;;;;;7.50;2.25;;;12.70;1.00;;;;;;4976839;28;20208;-79
2023/07/26 04:27:11;;;;;;;3.67;1.92;;;12.80;1.00;;;;;;4973636;28;20185;-76
2023/07/26 04:29:39;;;;;;;2.92;1.65;;;12.90;1.00;;;;;;4966981;28;20180;-77
2023/07/26 04:32:05;;;;;;;3.53;1.98;;;13.00;1.00;;;;;;4971965;28;20189;-78
2023/07/26 04:34:30;;;;;;;6.82;2.33;;;13.10;1.00;;;;;;4977574;28;20216;-76
2023/07/26 04:37:00;;;;;;;4.68;2.13;;;13.30;1.00;;;;;;4956386;28;20187;-77
2023/07/26 04:39:26;;;;;;;4.80;2.00;;;13.40;1.00;;;;;;4976854;28;20229;-77
2023/07/26 04:41:52;;;;;;;5.80;2.10;;;13.60;1.00;;;;;;4974022;28;20221;-74
2023/07/26 04:44:17;;;;;;;3.85;1.80;;;13.70;1.00;;;;;;4976461;28;20192;-76
2023/07/26 04:46:48;;;;;;;3.20;1.60;;;13.80;1.00;;;;;;4973252;28;20191;-75
2023/07/26 04:49:14;;;;;;;3.60;1.73;;;13.90;1.00;;;;;;4972783;28;20646;-74
2023/07/26 04:51:45;;;;;;;4.38;1.90;;;14.00;1.00;;;;;;4976538;28;20192;-76
2023/07/26 04:54:11;;;;;;;4.50;1.80;;;14.40;1.00;;;;;;4944166;28;20259;-75
2023/07/26 04:56:37;;;;;;;2.70;1.67;;;14.70;99.90;;;;;;4964135;28;20628;-75
2023/07/26 04:59:03;;;;;;;4.10;1.45;;;14.80;99.90;;;;;;4974257;28;20644;-78
2023/07/26 05:01:29;;;;;;;2.78;1.35;;;15.30;99.90;;;;;;4973190;28;20278;-78
2023/07/26 05:03:54;;;;;;;3.30;1.40;;;16.00;99.90;;;;;;4968668;28;20208;-80
2023/07/26 05:06:20;;;;;;;4.00;1.40;;;16.90;63.30;;;;;;4979722;28;20204;-76
2023/07/26 05:08:47;;;;;;;3.00;1.35;;;17.40;1.00;;;;;;4970915;28;20200;-76
2023/07/26 05:11:13;;;;;;;2.67;1.45;;;17.50;1.00;;;;;;4976017;28;20192;-77
2023/07/26 05:13:38;;;;;;;3.92;1.50;;;17.40;1.00;;;;;;4975554;28;20224;-76
2023/07/26 05:16:04;;;;;;;2.75;1.40;;;17.70;1.00;;;;;;4974820;28;20255;-76
2023/07/26 05:18:30;;;;;;;2.30;1.42;;;18.00;1.00;;;;;;4972311;28;20943;-77
2023/07/26 05:20:55;;;;;;;4.60;1.50;;;17.70;1.00;;;;;;4972707;28;20670;-77
2023/07/26 05:23:21;;;;;;;2.38;1.42;;;17.40;1.00;;;;;;4975660;28;20231;-78
2023/07/26 05:25:47;;;;;;;3.03;1.30;;;17.20;1.00;;;;;;4977862;28;20534;-76
2023/07/26 05:28:13;;;;;;;2.67;1.40;;;16.70;1.00;;;;;;4977264;28;20204;-76
2023/07/26 05:30:39;;;;;;;3.38;1.70;;;16.30;1.00;;;;;;4976290;28;20192;-77
2023/07/26 05:33:06;;;;;;;4.03;1.60;;;16.30;1.00;;;;;;4959297;28;20296;-78
2023/07/26 05:35:32;;;;;;;4.38;1.60;;;16.30;1.00;;;;;;4977072;28;20208;-77
2023/07/26 05:37:58;;;;;;;2.38;1.40;;;16.30;1.00;;;;;;4956888;28;20181;-76
2023/07/26 05:40:23;;;;;;;2.25;1.30;;;16.30;1.00;;;;;;4970046;28;20185;-76
2023/07/26 05:42:49;;;;;;;2.25;1.70;;;16.10;1.00;;;;;;4967471;28;20228;-76
2023/07/26 05:45:15;;;;;;;4.57;1.50;;;16.10;1.00;;;;;;4977245;28;20204;-78
2023/07/26 05:47:41;;;;;;;3.05;1.52;;;16.10;1.00;;;;;;4973706;28;20196;-78
2023/07/26 05:50:08;;;;;;;2.70;1.67;;;16.10;1.00;;;;;;4975775;28;20180;-78
2023/07/26 05:52:34;;;;;;;2.45;1.63;;;16.10;1.00;;;;;;4977718;28;20210;-78
2023/07/26 05:54:59;;;;;;;4.18;1.67;;;16.30;1.00;;;;;;4956955;28;20291;-77
2023/07/26 05:57:25;;;;;;;3.25;1.52;;;16.60;1.00;;;;;;4974125;28;20192;-77
2023/07/26 05:59:51;;;;;;;3.15;1.50;;;16.60;1.00;;;;;;4975243;28;20195;-77
2023/07/26 06:02:16;;;;;;;3.40;1.52;;;16.70;1.00;;;;;;4956065;28;20183;-78
2023/07/26 06:04:42;;;;;;;3.97;1.60;;;16.60;1.00;;;;;;4987759;28;20212;-77
2023/07/26 06:07:08;;;;;;;2.65;1.70;;;16.60;1.00;;;;;;4957864;28;20209;-79
2023/07/26 06:09:36;;;;;;;2.85;1.60;;;16.50;1.00;;;;;;4960475;28;20240;-77
2023/07/26 06:12:02;;;;;;;2.95;1.55;;;16.40;1.00;;;;;;4976543;28;20184;-75
2023/07/26 06:14:29;;;;;;;2.58;1.60;;;16.50;1.00;;;;;;4979173;28;20546;-77
2023/07/26 06:16:54;;;;;;;2.35;1.48;;;17.00;1.00;;;;;;4977738;28;20180;-77
2023/07/26 06:19:21;;;;;;;2.67;1.33;;;17.40;1.00;;;;;;4961065;28;20204;-75
2023/07/26 06:21:46;;;;;;;3.60;1.73;;;17.40;1.00;;;;;;4977814;28;20188;-78
2023/07/26 06:24:12;;;;;;;2.40;1.67;;;17.20;1.00;;;;;;4977194;28;20541;-76
2023/07/26 06:26:38;;;;;;;3.97;1.70;;;16.80;1.00;;;;;;4976628;28;20215;-76
2023/07/26 06:29:04;;;;;;;3.05;1.80;;;16.70;1.00;;;;;;4959957;28;20681;-76
2023/07/26 06:31:30;;;;;;;3.03;1.95;;;16.70;1.00;;;;;;4975253;28;20185;-75
2023/07/26 06:33:55;;;;;;;3.78;1.92;;;16.60;1.00;;;;;;4978421;28;20208;-76
2023/07/26 06:36:21;;;;;;;4.20;1.90;;;16.60;1.00;;;;;;4958884;28;20204;-76
2023/07/26 06:38:47;;;;;;;2.47;1.60;;;16.90;1.00;;;;;;4969183;28;20189;-75
2023/07/26 06:41:12;;;;;;;2.65;1.85;;;17.40;1.00;;;;;;4980815;28;20196;-75
2023/07/26 06:43:38;;;;;;;2.13;1.58;;;17.50;1.00;;;;;;4970048;28;20711;-75
2023/07/26 06:46:03;;;;;;;3.40;1.63;;;17.60;1.00;;;;;;4975075;28;20215;-75
2023/07/26 06:48:29;;;;;;;5.28;1.60;;;17.80;1.00;;;;;;4978967;28;20188;-76
2023/07/26 06:50:55;;;;;;;4.70;1.45;;;18.10;1.00;;;;;;4969344;28;20212;-76
2023/07/26 06:53:20;;;;;;;4.45;1.80;;;19.40;1.00;;;;;;4972241;28;20272;-75
2023/07/26 06:55:46;;;;;;;2.90;1.48;;;20.70;1.00;;;;;;4974724;28;20644;-75
2023/07/26 06:58:12;;;;;;;3.38;1.70;;;21.50;1.00;;;;;;4973602;28;20184;-75
2023/07/26 07:00:38;;;;;;;2.55;1.50;;;21.40;1.00;;;;;;4969775;28;20196;-75
2023/07/26 07:03:04;;;;;;;3.45;1.60;;;21.00;1.00;;;;;;4971601;28;20189;-75
2023/07/26 07:05:33;;;;;;;3.10;1.52;;;20.40;1.00;;;;;;4969695;28;20217;-76
2023/07/26 07:07:59;;;;;;;3.90;1.52;;;20.30;1.00;;;;;;4968031;28;20197;-75
2023/07/26 07:10:25;;;;;;;5.95;2.15;;;20.60;1.00;;;;;;4967406;28;20205;-75
2023/07/26 07:12:50;;;;;;;4.90;1.92;;;20.80;1.00;;;;;;4967270;28;20207;-75
2023/07/26 07:15:16;;;;;;;4.10;2.33;;;20.90;99.90;;;;;;4967657;28;20241;-75
2023/07/26 07:17:42;;;;;;;5.50;2.90;;;21.10;99.90;;;;;;4967319;28;20759;-74
2023/07/26 07:20:08;;;;;;;4.78;2.47;;;22.10;99.90;;;;;;4971559;28;20188;-75
2023/07/26 07:22:34;;;;;;;4.20;2.15;;;22.90;99.90;;;;;;4965941;28;20681;-75
2023/07/26 07:25:00;;;;;;;3.97;1.98;;;23.30;99.90;;;;;;4972822;28;20208;-75
2023/07/26 07:27:26;;;;;;;4.90;2.10;;;23.00;99.90;;;;;;4973437;28;20528;-75
2023/07/26 07:29:51;;;;;;;3.40;2.13;;;22.20;99.90;;;;;;4958677;28;20184;-74
2023/07/26 07:32:17;;;;;;;2.65;1.85;;;20.70;99.90;;;;;;4967493;28;20235;-75
2023/07/26 07:34:43;;;;;;;2.78;1.92;;;19.90;99.90;;;;;;4979312;28;20208;-74
2023/07/26 07:37:09;;;;;;;5.07;2.55;;;19.30;99.90;;;;;;4975988;28;20184;-75
2023/07/26 07:39:35;;;;;;;2.85;2.17;;;19.00;99.90;;;;;;4978375;28;20185;-76
2023/07/26 07:42:01;;;;;;;4.75;3.05;;;18.80;99.90;;;;;;4978851;28;20176;-74
2023/07/26 07:44:30;;;;;;;4.75;2.60;;;18.60;99.90;;;;;;4973204;28;20710;-76
2023/07/26 07:46:56;;;;;;;4.03;2.22;;;18.50;99.90;;;;;;4976150;28;20189;-76
2023/07/26 07:49:22;;;;;;;3.20;1.80;;;18.40;99.90;;;;;;4975389;28;20658;-75
2023/07/26 07:51:47;;;;;;;5.82;2.33;;;18.10;1.00;;;;;;4974868;28;20216;-75
2023/07/26 07:54:13;;;;;;;5.00;2.67;;;17.80;1.00;;;;;;4976338;28;20699;-75
2023/07/26 07:56:39;;;;;;;5.38;3.78;;;17.50;1.00;;;;;;4975330;28;20577;-75
2023/07/26 07:59:06;;;;;;;6.75;2.75;;;17.50;1.00;;;;;;4979310;28;21368;-78
2023/07/26 08:01:32;;;;;;;5.18;2.72;;;17.50;1.00;;;;;;4977514;28;20180;-76
2023/07/26 08:04:00;;;;;;;4.70;2.40;;;17.60;1.00;;;;;;4976834;28;20275;-75
2023/07/26 08:06:26;;;;;;;4.40;2.40;;;17.50;1.00;;;;;;4958094;28;20269;-76
2023/07/26 08:08:52;;;;;;;3.47;2.13;;;17.50;1.00;;;;;;4976137;28;20192;-75
2023/07/26 08:11:18;;;;;;;3.63;1.83;;;17.50;1.00;;;;;;4974504;28;20204;-76
2023/07/26 08:13:44;;;;;;;4.35;2.00;;;17.80;1.00;;;;;;4976595;28;20216;-75
2023/07/26 08:16:10;;;;;;;2.83;1.83;;;18.30;1.00;;;;;;4975134;28;20201;-76
2023/07/26 08:18:37;;;;;;;4.40;1.73;;;18.50;1.00;;;;;;4975588;28;20211;-75
2023/07/26 08:21:05;;;;;;;4.70;1.85;;;18.60;1.00;;;;;;4977231;28;20766;-75
2023/07/26 08:23:31;;;;;;;3.00;1.55;;;18.50;1.00;;;;;;4976327;28;20228;-75
2023/07/26 08:26:05;;;;;;;3.95;1.67;;;18.20;1.00;;;;;;4975728;28;20288;-74
2023/07/26 08:28:32;;;;;;;2.47;1.77;;;18.10;1.00;;;;;;4976199;28;20308;-75
2023/07/26 08:30:58;;;;;;;3.92;2.28;;;18.10;1.00;;;;;;4980821;28;20201;-76
2023/07/26 08:33:24;;;;;;;2.58;1.80;;;18.20;1.00;;;;;;4977288;28;20263;-76
2023/07/26 08:35:50;;;;;;;2.33;1.73;;;18.30;1.00;;;;;;4989207;28;20264;-76
2023/07/26 08:38:17;;;;;;;3.50;1.75;;;18.30;1.00;;;;;;4973634;28;20181;-75
2023/07/26 08:40:47;;;;;;;3.20;1.83;;;18.20;1.00;;;;;;4974862;28;20189;-76
2023/07/26 08:43:21;;;;;;;2.08;1.50;;;18.30;1.00;;;;;;4975658;28;20215;-76
2023/07/26 08:45:47;;;;;;;2.00;1.40;;;18.60;1.00;;;;;;4974299;28;20285;-76
2023/07/26 08:48:13;;;;;;;4.78;1.65;;;18.40;1.00;;;;;;4974940;28;20226;-75
2023/07/26 08:50:39;;;;;;;3.08;1.13;;;18.30;1.00;;;;;;4959102;28;20203;-75
2023/07/26 08:53:07;;;;;;;1.23;1.10;;;18.30;1.00;;;;;;4974801;28;20209;-76
2023/07/26 08:55:33;;;;;;;3.90;1.23;;;18.20;1.00;;;;;;4975928;28;20209;-75
2023/07/26 08:58:00;;;;;;;1.60;1.13;;;18.40;1.00;;;;;;4975628;28;20188;-77
2023/07/26 09:00:29;;;;;;;2.25;1.17;;;18.50;1.00;;;;;;4981198;28;20222;-75
2023/07/26 09:03:01;;;;;;;2.88;1.45;;;18.50;1.00;;;;;;4974509;28;20185;-77
2023/07/26 09:05:27;;;;;;;3.20;1.90;;;18.70;1.00;;;;;;4975014;28;20204;-75
2023/07/26 09:07:55;;;;;;;2.20;1.33;;;18.80;1.00;;;;;;4976713;28;20193;-74
2023/07/26 09:10:29;;;;;;;2.78;1.50;;;18.80;1.00;;;;;;4974148;28;20798;-77
2023/07/26 09:13:21;;;;;;;2.58;1.42;;;;;;;;;;4973258;28;20628;-77
2023/07/26 09:15:47;;;;;;;2.88;1.40;;;19.40;99.90;;;;;;4973853;28;21284;-78
2023/07/26 09:18:14;;;;;;;2.08;1.42;;;19.40;1.00;;;;;;4974800;28;20323;-76
2023/07/26 09:20:40;;;;;;;1.73;1.50;;;19.50;1.00;;;;;;4978208;28;20180;-77
2023/07/26 09:23:08;;;;;;;2.17;1.10;;;19.60;99.90;;;;;;4976739;28;20180;-75
2023/07/26 09:25:37;;;;;;;2.50;1.50;;;19.70;1.00;;;;;;4957758;28;20208;-79
2023/07/26 09:28:04;;;;;;;2.85;1.35;;;19.50;99.90;;;;;;4956484;28;20234;-77
2023/07/26 09:30:35;;;;;;;3.85;1.63;;;19.40;99.90;;;;;;4974726;28;20188;-76
2023/07/26 09:33:02;;;;;;;11.75;2.45;;;18.70;1.00;;;;;;4973210;28;20177;-77
2023/07/26 09:35:30;;;;;;;4.03;1.80;;;;;;;;;;4958028;28;20286;-82
2023/07/26 09:37:56;;;;;;;4.20;2.08;;;17.60;1.00;;;;;;4973519;28;20595;-84
2023/07/26 09:40:36;;;;;;;7.90;2.67;;;17.70;1.00;;;;;;4974020;28;20185;-87
2023/07/26 09:43:03;;;;;;;2.67;1.70;;;17.60;1.00;;;;;;4991177;28;20188;-82
2023/07/26 09:51:10;;;;;;;2.05;1.60;;;18.60;50.90;;;;;;4994765;28;20274;-82
2023/07/26 09:53:37;;;;;;;7.15;2.10;;;;;;;;;;4995803;28;20563;-74
2023/07/26 09:56:03;;;;;;;3.50;1.70;;;19.10;1.00;;;;;;4991447;28;20199;-77
2023/07/26 09:58:31;;;;;;;1.40;1.25;;;19.20;1.00;;;;;;4994432;28;20231;-77
2023/07/26 10:00:59;;;;;;;2.80;1.42;;;;;;;;;;4992737;28;20215;-76
2023/07/26 10:03:25;;;;;;;1.58;1.42;;;;;;;;;;4991400;28;20186;-76
2023/07/26 10:05:53;;;;;;;2.38;1.33;;;;;;;;;;4992143;28;20215;-77
2023/07/26 10:08:20;;;;;;;2.83;1.50;;;;;;;;;;4991672;28;20191;-77
2023/07/26 10:10:47;;;;;;;1.85;1.60;;;18.70;1.00;;;;;;4998122;28;20187;-76
2023/07/26 10:13:14;;;;;;;1.70;1.38;;;18.70;1.00;;;;;;4995203;28;20231;-76
2023/07/26 10:15:44;;;;;;;2.28;1.42;;;;;;;;;;4996112;28;20211;-78
2023/07/26 10:18:11;;;;;;;1.55;1.23;;;18.10;1.00;;;;;;4992195;28;20188;-78
2023/07/26 10:20:41;;;;;;;1.45;1.35;;;18.10;1.00;;;;;;4994920;28;20211;-76
2023/07/26 10:23:10;;;;;;;2.25;1.13;;;;;;;;;;4992675;28;20175;-77
2023/07/26 10:25:37;;;;;;;2.97;1.30;;;;;;;;;;4993977;28;20203;-77
2023/07/26 10:28:03;;;;;;;2.35;1.23;;;17.70;1.00;;;;;;4993005;28;20180;-81
2023/07/26 10:30:29;;;;;;;1.80;1.13;;;;;;;;;;4992557;28;20180;-79
2023/07/26 10:32:55;;;;;;;1.80;1.35;;;17.80;1.00;;;;;;4993005;28;20188;-78
2023/07/26 10:35:33;;;;;;;2.03;1.48;;;17.70;1.00;;;;;;4994470;28;20249;-78
2023/07/26 10:38:02;;;;;;;2.40;1.33;;;17.80;1.00;;;;;;4994085;28;20173;-78
2023/07/26 10:40:36;;;;;;;2.05;1.40;;;17.90;1.00;;;;;;4976900;28;20199;-78
2023/07/26 10:43:38;;;;;;;3.03;1.63;;;18.20;1.00;;;;;;4992091;28;21055;-77
2023/07/26 10:46:13;;;;;;;2.33;1.38;;;18.40;1.00;;;;;;4925176;29;20232;-75
2023/07/26 10:48:40;;;;;;;2.10;1.30;;;18.00;99.90;;;;;;4982827;28;21015;-76
2023/07/26 10:51:24;;;;;;;2.45;1.27;;;18.50;1.00;;;;;;4989575;28;20195;-77
2023/07/26 10:53:52;;;;;;;1.58;1.25;;;18.10;1.00;;;;;;4999446;28;20199;-76
2023/07/26 10:56:24;;;;;;;3.03;1.30;;;18.10;1.00;;;;;;4996360;28;20196;-77
2023/07/26 10:59:16;;;;;;;1.90;1.20;;;18.10;1.00;;;;;;4996415;28;20168;-77
2023/07/26 11:01:46;;;;;;;1.10;1.00;;;18.00;1.00;;;;;;4993136;28;20578;-77
2023/07/26 11:04:14;;;;;;;0.98;0.85;;;18.00;1.00;;;;;;4997845;28;20216;-76
2023/07/26 11:06:57;;;;;;;1.40;1.13;;;18.00;1.00;;;;;;4996290;28;20541;-77
2023/07/26 11:09:24;;;;;;;2.30;1.50;;;18.10;1.00;;;;;;4997396;28;20218;-77
2023/07/26 11:12:02;;;;;;;2.22;1.63;;;18.10;1.00;;;;;;4996363;28;20234;-78
2023/07/26 11:14:33;;;;;;;2.30;1.40;;;18.10;1.00;;;;;;4997220;28;20204;-78
2023/07/26 11:17:07;;;;;;;3.08;1.38;;;18.20;1.00;;;;;;4994559;28;20258;-77
2023/07/26 11:19:47;;;;;;;1.92;1.60;;;18.30;1.00;;;;;;4996329;28;20183;-78
2023/07/26 11:22:12;;;;;;;1.88;1.38;;;18.50;1.00;;;;;;4997708;28;20188;-77
2023/07/26 11:24:38;;;;;;;2.17;1.40;;;18.60;1.00;;;;;;4998190;28;20207;-75
2023/07/26 11:27:05;;;;;;;1.90;1.35;;;18.60;1.00;;;;;;4995947;28;20188;-76
2023/07/26 11:29:32;;;;;;;1.77;1.20;;;18.70;1.00;;;;;;4997117;28;20371;-76
2023/07/26 11:31:58;;;;;;;5.15;1.40;;;18.80;1.00;;;;;;4997463;28;20754;-76
2023/07/26 11:34:23;;;;;;;1.70;1.20;;;18.90;1.00;;;;;;4994763;28;20214;-76
2023/07/26 11:36:49;;;;;;;1.70;1.55;;;18.90;1.00;;;;;;4998030;28;20226;-74
2023/07/26 11:39:22;;;;;;;1.80;1.52;;;18.90;1.00;;;;;;4995411;28;20183;-76
2023/07/26 11:41:52;;;;;;;1.15;1.05;;;18.90;99.90;;;;;;4994882;28;20250;-75
2023/07/26 11:44:22;;;;;;;1.75;1.08;;;19.00;99.90;;;;;;4997057;28;20551;-75
2023/07/26 11:46:48;;;;;;;2.08;1.10;;;19.00;99.90;;;;;;5000771;28;20306;-74
2023/07/26 11:49:21;;;;;;;2.33;1.33;;;19.10;99.90;;;;;;4990982;28;20208;-75
2023/07/26 11:51:48;;;;;;;1.20;1.00;;;19.30;99.90;;;;;;4985929;28;20242;-74
2023/07/26 11:54:14;;;;;;;2.75;1.73;;;19.50;99.90;;;;;;4997588;28;20211;-75
2023/07/26 11:56:41;;;;;;;2.85;1.17;;;19.70;99.90;;;;;;4992713;28;20208;-75
2023/07/26 11:59:08;;;;;;;1.10;1.00;;;19.90;99.90;;;;;;4976611;28;20544;-75
2023/07/26 12:01:36;;;;;;;1.40;0.90;;;19.70;99.90;;;;;;4990103;28;20212;-75
2023/07/26 12:04:09;;;;;;;1.00;1.00;;;20.30;99.90;;;;;;4993167;28;20570;-74
2023/07/26 12:06:35;;;;;;;2.75;1.30;;;20.30;99.90;;;;;;4999379;28;20215;-75
2023/07/26 12:09:10;;;;;;;1.90;1.23;;;20.40;99.90;;;;;;4996882;28;20191;-75
2023/07/26 12:11:50;;;;;;;1.85;1.10;;;20.60;99.90;;;;;;4994539;28;20192;-75
2023/07/26 12:14:17;;;;;;;3.13;1.35;;;20.90;99.90;;;;;;5000177;28;20208;-74
2023/07/26 12:16:53;;;;;;;1.40;1.30;;;21.20;99.90;;;;;;5001682;28;20180;-74
2023/07/26 12:19:25;;;;;;;1.33;1.08;;;21.20;99.90;;;;;;4994035;28;20194;-75
2023/07/26 12:21:51;;;;;;;1.40;1.27;;;20.90;99.90;;;;;;4979272;28;20179;-75
2023/07/26 12:24:17;;;;;;;1.48;1.15;;;20.60;99.90;;;;;;4993421;28;20184;-74
2023/07/26 12:26:47;;;;;;;1.60;1.30;;;20.60;99.90;;;;;;4994002;28;20195;-75
2023/07/26 12:29:14;;;;;;;1.30;1.20;;;20.20;99.90;;;;;;4993958;28;20224;-74
2023/07/26 12:31:40;;;;;;;1.77;1.50;;;19.60;99.90;;;;;;4997866;28;20274;-75
2023/07/26 12:34:07;;;;;;;1.83;0.98;;;19.30;99.90;;;;;;4996343;28;20777;-76
2023/07/26 12:36:44;;;;;;;2.38;1.40;;;19.00;99.90;;;;;;4994950;28;20215;-74
2023/07/26 12:39:10;;;;;;;1.42;1.30;;;18.60;99.90;;;;;;4987757;28;20183;-74
2023/07/26 12:41:38;;;;;;;2.08;1.50;;;18.30;99.90;;;;;;4996269;28;20183;-75
2023/07/26 12:44:07;;;;;;;1.52;1.00;;;18.20;99.90;;;;;;4994212;28;20229;-74
2023/07/26 12:46:36;;;;;;;3.38;1.30;;;18.30;99.90;;;;;;4994439;28;20195;-75
2023/07/26 12:49:04;;;;;;;1.42;1.02;;;18.40;99.90;;;;;;4990177;28;20199;-75
2023/07/26 12:51:30;;;;;;;1.00;0.90;;;18.60;99.90;;;;;;4998055;28;20303;-75
2023/07/26 12:53:56;;;;;;;1.33;1.23;;;18.70;99.90;;;;;;4996119;28;20208;-75
2023/07/26 12:56:23;;;;;;;1.48;1.15;;;18.70;99.90;;;;;;4999075;28;20205;-76
2023/07/26 12:58:48;;;;;;;1.13;0.90;;;18.70;99.90;;;;;;4994582;28;20179;-74
2023/07/26 13:01:15;;;;;;;1.13;0.80;;;18.40;99.90;;;;;;4994930;28;20237;-75
2023/07/26 13:03:41;;;;;;;1.73;1.08;;;18.20;99.90;;;;;;4993049;28;20180;-75